PWSweather.com
Personal Weather Stations
Station Observations
NBW76
Silver Creek, North Bend, WA 98065

Silver CreekNorth Bend, WA 98065

Lat: 47.4993612, Lon: -121.7783245

Elevation: 443

Station Type: Davisd VP2 + Solar + UV + Webcam

www.northbendweather.com

High Low Average
Temperature 52.9°F11.6°C 42.2°F5.7°C 48.1°F8.9°C
Dew Point 41.6°F5.3°C 35.5°F1.9°C 39.4°F4.1°C
Winds 12.7 mph 20.4 kmh Calm Calm 6.0 mph ESE9.7 kmh ESE
Wind Gusts 23.0 mph37.0 kmh 2.3 mph3.7 kmh 10.0 mph16.1 kmh
Humidity 92% 52% 73%
Pressure 30.02 in1016.6 mb 29.73 in1006.8 mb -
Precipitation 0.14 in3.6 mm - -
Hour Temp Dew Point Humidity Winds Wind Gusts Pressure Precip Precip Rate Daily Precip Total
12:00 AM 44.0°F6.7°C 40.1°F4.5°C 86% 2.3 mph E3.7 kmh E 4.6 mph7.4 kmh 29.93 in1013.5 mb - 0.00 in0.0 mm 0.00 in0.0 mm
12:10 AM 43.8°F6.6°C 39.9°F4.4°C 86% 1.2 mph SSW1.9 kmh SSW 2.3 mph3.7 kmh 29.94 in1013.9 mb - 0.01 in0.3 mm 0.01 in0.3 mm
12:20 AM 44.0°F6.7°C 40.1°F4.5°C 86% 4.6 mph ESE7.4 kmh ESE 6.9 mph11.1 kmh 29.94 in1013.9 mb - 0.01 in0.3 mm 0.02 in0.5 mm
12:30 AM 43.8°F6.6°C 40.1°F4.5°C 87% 2.3 mph SE3.7 kmh SE 3.5 mph5.6 kmh 29.94 in1013.9 mb - 0.01 in0.3 mm 0.02 in0.5 mm
12:40 AM 44.0°F6.7°C 40.6°F4.8°C 88% 2.3 mph ENE3.7 kmh ENE 4.6 mph7.4 kmh 29.94 in1013.9 mb - 0.01 in0.3 mm 0.03 in0.8 mm
12:50 AM 43.6°F6.4°C 40.6°F4.8°C 89% 2.3 mph ESE3.7 kmh ESE 5.8 mph9.3 kmh 29.94 in1013.9 mb - 0.00 in0.0 mm 0.03 in0.8 mm
01:00 AM 44.2°F6.8°C 40.9°F4.9°C 88% 1.2 mph SSW1.9 kmh SSW 3.5 mph5.6 kmh 29.95 in1014.2 mb - 0.00 in0.0 mm 0.03 in0.8 mm
01:10 AM 43.9°F6.6°C 40.9°F4.9°C 89% 3.5 mph SE5.6 kmh SE 4.6 mph7.4 kmh 29.95 in1014.2 mb - 0.01 in0.3 mm 0.04 in1.0 mm
01:20 AM 43.7°F6.5°C 41.0°F5.0°C 90% Calm Calm 2.3 mph3.7 kmh 29.95 in1014.2 mb - 0.01 in0.3 mm 0.05 in1.3 mm
01:30 AM 43.8°F6.6°C 41.1°F5.1°C 90% 1.2 mph ESE1.9 kmh ESE 6.9 mph11.1 kmh 29.96 in1014.6 mb - 0.00 in0.0 mm 0.05 in1.3 mm
01:40 AM 44.0°F6.7°C 41.0°F5.0°C 89% 2.3 mph SE3.7 kmh SE 3.5 mph5.6 kmh 29.96 in1014.6 mb - 0.02 in0.5 mm 0.07 in1.8 mm
01:50 AM 43.9°F6.6°C 40.9°F4.9°C 89% 2.3 mph SE3.7 kmh SE 3.5 mph5.6 kmh 29.96 in1014.6 mb - 0.00 in0.0 mm 0.07 in1.8 mm
02:00 AM 43.8°F6.6°C 41.0°F5.0°C 90% 3.5 mph ESE5.6 kmh ESE 4.6 mph7.4 kmh 29.97 in1014.9 mb - 0.01 in0.3 mm 0.08 in2.0 mm
02:10 AM 44.0°F6.7°C 41.0°F5.0°C 89% 3.5 mph E5.6 kmh E 4.6 mph7.4 kmh 29.97 in1014.9 mb - 0.02 in0.5 mm 0.09 in2.3 mm
02:20 AM 44.0°F6.7°C 41.0°F5.0°C 89% 2.3 mph ESE3.7 kmh ESE 9.2 mph14.8 kmh 29.98 in1015.2 mb - 0.00 in0.0 mm 0.09 in2.3 mm
02:30 AM 44.6°F7.0°C 41.3°F5.2°C 88% 1.2 mph SSE1.9 kmh SSE 3.5 mph5.6 kmh 29.98 in1015.2 mb - 0.00 in0.0 mm 0.09 in2.3 mm
02:40 AM 44.8°F7.1°C 41.2°F5.1°C 87% 4.6 mph E7.4 kmh E 12.7 mph20.4 kmh 29.98 in1015.2 mb - 0.00 in0.0 mm 0.09 in2.3 mm
02:50 AM 45.5°F7.5°C 41.3°F5.2°C 85% 4.6 mph E7.4 kmh E 11.5 mph18.5 kmh 29.98 in1015.2 mb - 0.00 in0.0 mm 0.09 in2.3 mm
03:00 AM 44.9°F7.2°C 41.3°F5.2°C 87% 1.2 mph E1.9 kmh E 2.3 mph3.7 kmh 29.98 in1015.2 mb - 0.01 in0.3 mm 0.10 in2.5 mm
03:10 AM 45.5°F7.5°C 41.6°F5.3°C 86% 8.1 mph ESE13.0 kmh ESE 12.7 mph20.4 kmh 29.99 in1015.6 mb - 0.01 in0.3 mm 0.11 in2.8 mm
03:20 AM 45.7°F7.6°C 41.1°F5.1°C 84% 3.5 mph E5.6 kmh E 3.5 mph5.6 kmh 29.99 in1015.6 mb - 0.00 in0.0 mm 0.11 in2.8 mm
03:30 AM 45.6°F7.6°C 41.0°F5.0°C 84% 1.2 mph ENE1.9 kmh ENE 2.3 mph3.7 kmh 29.99 in1015.6 mb - 0.00 in0.0 mm 0.11 in2.8 mm
03:40 AM 45.5°F7.5°C 41.2°F5.1°C 85% 1.2 mph SE1.9 kmh SE 3.5 mph5.6 kmh 30.00 in1015.9 mb - 0.00 in0.0 mm 0.11 in2.8 mm
03:50 AM 44.9°F7.2°C 41.0°F5.0°C 86% 4.6 mph E7.4 kmh E 10.4 mph16.7 kmh 30.00 in1015.9 mb - 0.02 in0.5 mm 0.13 in3.3 mm
04:00 AM 44.5°F6.9°C 41.2°F5.1°C 88% 1.2 mph NE1.9 kmh NE 3.5 mph5.6 kmh 30.00 in1015.9 mb - 0.00 in0.0 mm 0.13 in3.3 mm
04:10 AM 44.8°F7.1°C 41.1°F5.1°C 87% 1.2 mph SE1.9 kmh SE 4.6 mph7.4 kmh 30.00 in1015.9 mb - 0.00 in0.0 mm 0.13 in3.3 mm
04:20 AM 44.6°F7.0°C 41.0°F5.0°C 87% 2.3 mph ESE3.7 kmh ESE 5.8 mph9.3 kmh 30.01 in1016.3 mb - 0.00 in0.0 mm 0.13 in3.3 mm
04:30 AM 45.1°F7.3°C 40.8°F4.9°C 85% 5.8 mph E9.3 kmh E 9.2 mph14.8 kmh 30.01 in1016.3 mb - 0.00 in0.0 mm 0.13 in3.3 mm
04:40 AM 44.5°F6.9°C 40.6°F4.8°C 86% 1.2 mph ESE1.9 kmh ESE 3.5 mph5.6 kmh 30.01 in1016.3 mb - 0.00 in0.0 mm 0.13 in3.3 mm
04:50 AM 43.6°F6.4°C 40.6°F4.8°C 89% 3.5 mph E5.6 kmh E 4.6 mph7.4 kmh 30.02 in1016.6 mb - 0.00 in0.0 mm 0.13 in3.3 mm
05:00 AM 43.1°F6.2°C 40.4°F4.7°C 90% 1.2 mph ESE1.9 kmh ESE 2.3 mph3.7 kmh 30.01 in1016.3 mb - 0.00 in0.0 mm 0.13 in3.3 mm
05:10 AM 43.5°F6.4°C 40.7°F4.8°C 90% 2.3 mph SE3.7 kmh SE 4.6 mph7.4 kmh 30.02 in1016.6 mb - 0.00 in0.0 mm 0.13 in3.3 mm
05:20 AM 43.3°F6.3°C 40.6°F4.8°C 90% 3.5 mph ESE5.6 kmh ESE 10.4 mph16.7 kmh 30.02 in1016.6 mb - 0.00 in0.0 mm 0.13 in3.3 mm
05:30 AM 42.7°F5.9°C 40.3°F4.6°C 91% 2.3 mph ESE3.7 kmh ESE 4.6 mph7.4 kmh 30.02 in1016.6 mb - 0.00 in0.0 mm 0.13 in3.3 mm
05:40 AM 42.6°F5.9°C 40.4°F4.7°C 92% 4.6 mph SE7.4 kmh SE 5.8 mph9.3 kmh 30.02 in1016.6 mb - 0.00 in0.0 mm 0.13 in3.3 mm
05:50 AM 42.5°F5.8°C 40.3°F4.6°C 92% 1.2 mph ESE1.9 kmh ESE 3.5 mph5.6 kmh 30.01 in1016.3 mb - 0.00 in0.0 mm 0.13 in3.3 mm
06:00 AM 42.7°F5.9°C 40.5°F4.7°C 92% 2.3 mph S3.7 kmh S 2.3 mph3.7 kmh 30.01 in1016.3 mb - 0.00 in0.0 mm 0.13 in3.3 mm
06:10 AM 42.5°F5.8°C 40.4°F4.7°C 92% 2.3 mph SE3.7 kmh SE 5.8 mph9.3 kmh 30.01 in1016.3 mb - 0.01 in0.3 mm 0.14 in3.6 mm
06:20 AM 42.7°F5.9°C 40.6°F4.8°C 92% 4.6 mph ESE7.4 kmh ESE 11.5 mph18.5 kmh 30.01 in1016.3 mb - 0.01 in0.3 mm 0.14 in3.6 mm
06:30 AM 42.8°F6.0°C 40.4°F4.7°C 91% 4.6 mph SE7.4 kmh SE 6.9 mph11.1 kmh 30.01 in1016.3 mb - 0.00 in0.0 mm 0.14 in3.6 mm
06:40 AM 42.4°F5.8°C 40.0°F4.4°C 91% 5.8 mph SE9.3 kmh SE 9.2 mph14.8 kmh 30.01 in1016.3 mb - 0.00 in0.0 mm 0.14 in3.6 mm
06:50 AM 42.3°F5.7°C 39.9°F4.4°C 91% 2.3 mph ESE3.7 kmh ESE 3.5 mph5.6 kmh 30.01 in1016.3 mb - 0.00 in0.0 mm 0.14 in3.6 mm
07:00 AM 42.2°F5.7°C 39.8°F4.3°C 91% 1.2 mph SE1.9 kmh SE 3.5 mph5.6 kmh 30.01 in1016.3 mb - 0.00 in0.0 mm 0.14 in3.6 mm
07:10 AM 42.2°F5.7°C 39.8°F4.3°C 91% 3.5 mph SE5.6 kmh SE 5.8 mph9.3 kmh 30.01 in1016.3 mb - 0.00 in0.0 mm 0.14 in3.6 mm
07:20 AM 42.2°F5.7°C 39.8°F4.3°C 91% 2.3 mph SE3.7 kmh SE 3.5 mph5.6 kmh 30.01 in1016.3 mb - 0.00 in0.0 mm 0.14 in3.6 mm
07:30 AM 42.2°F5.7°C 39.5°F4.2°C 90% 3.5 mph SE5.6 kmh SE 3.5 mph5.6 kmh 30.01 in1016.3 mb - 0.00 in0.0 mm 0.14 in3.6 mm
07:40 AM 42.5°F5.8°C 39.8°F4.3°C 90% 2.3 mph SE3.7 kmh SE 3.5 mph5.6 kmh 30.01 in1016.3 mb - 0.00 in0.0 mm 0.14 in3.6 mm
07:50 AM 43.0°F6.1°C 40.0°F4.4°C 89% 3.5 mph ESE5.6 kmh ESE 5.8 mph9.3 kmh 30.01 in1016.3 mb - 0.00 in0.0 mm 0.14 in3.6 mm
08:00 AM 43.7°F6.5°C 40.1°F4.5°C 87% 4.6 mph ESE7.4 kmh ESE 5.8 mph9.3 kmh 30.01 in1016.3 mb - 0.00 in0.0 mm 0.14 in3.6 mm
08:10 AM 44.0°F6.7°C 40.3°F4.6°C 87% 6.9 mph SE11.1 kmh SE 11.5 mph18.5 kmh 30.00 in1015.9 mb - 0.00 in0.0 mm 0.14 in3.6 mm
08:20 AM 44.6°F7.0°C 40.4°F4.7°C 85% 3.5 mph ESE5.6 kmh ESE 10.4 mph16.7 kmh 30.00 in1015.9 mb - 0.00 in0.0 mm 0.14 in3.6 mm
08:30 AM 44.5°F6.9°C 40.3°F4.6°C 85% 8.1 mph SE13.0 kmh SE 15.0 mph24.1 kmh 30.00 in1015.9 mb - 0.00 in0.0 mm 0.14 in3.6 mm
08:40 AM 45.0°F7.2°C 40.1°F4.5°C 83% 5.8 mph SE9.3 kmh SE 10.4 mph16.7 kmh 30.00 in1015.9 mb - 0.00 in0.0 mm 0.14 in3.6 mm
08:50 AM 45.4°F7.4°C 40.5°F4.7°C 83% 9.2 mph ESE14.8 kmh ESE 15.0 mph24.1 kmh 30.00 in1015.9 mb - 0.00 in0.0 mm 0.14 in3.6 mm
09:00 AM 46.2°F7.9°C 40.3°F4.6°C 80% 8.1 mph SE13.0 kmh SE 12.7 mph20.4 kmh 30.00 in1015.9 mb - 0.00 in0.0 mm 0.14 in3.6 mm
09:10 AM 46.1°F7.8°C 40.3°F4.6°C 80% 8.1 mph SE13.0 kmh SE 15.0 mph24.1 kmh 29.99 in1015.6 mb - 0.00 in0.0 mm 0.14 in3.6 mm
09:20 AM 46.3°F7.9°C 40.5°F4.7°C 80% 5.8 mph SE9.3 kmh SE 6.9 mph11.1 kmh 29.99 in1015.6 mb - 0.00 in0.0 mm 0.14 in3.6 mm
09:30 AM 46.7°F8.2°C 40.6°F4.8°C 79% 11.5 mph ESE18.5 kmh ESE 16.1 mph25.9 kmh 29.99 in1015.6 mb - 0.00 in0.0 mm 0.14 in3.6 mm
09:40 AM 47.1°F8.4°C 40.6°F4.8°C 78% 10.4 mph ESE16.7 kmh ESE 11.5 mph18.5 kmh 29.99 in1015.6 mb - 0.00 in0.0 mm 0.14 in3.6 mm
09:50 AM 47.1°F8.4°C 40.3°F4.6°C 77% 12.7 mph ESE20.4 kmh ESE 15.0 mph24.1 kmh 30.00 in1015.9 mb - 0.00 in0.0 mm 0.14 in3.6 mm
10:00 AM 47.4°F8.6°C 40.9°F4.9°C 78% 8.1 mph ESE13.0 kmh ESE 10.4 mph16.7 kmh 30.00 in1015.9 mb - 0.00 in0.0 mm 0.14 in3.6 mm
10:10 AM 47.5°F8.6°C 40.6°F4.8°C 77% 8.1 mph SE13.0 kmh SE 11.5 mph18.5 kmh 29.99 in1015.6 mb - 0.00 in0.0 mm 0.14 in3.6 mm
10:20 AM 48.2°F9.0°C 41.0°F5.0°C 76% 6.9 mph SE11.1 kmh SE 13.8 mph22.2 kmh 29.99 in1015.6 mb - 0.00 in0.0 mm 0.14 in3.6 mm
10:30 AM 48.3°F9.1°C 41.4°F5.2°C 77% 6.9 mph ESE11.1 kmh ESE 12.7 mph20.4 kmh 29.99 in1015.6 mb - 0.00 in0.0 mm 0.14 in3.6 mm
10:40 AM 48.6°F9.2°C 41.4°F5.2°C 76% 8.1 mph ESE13.0 kmh ESE 10.4 mph16.7 kmh 29.99 in1015.6 mb - 0.00 in0.0 mm 0.14 in3.6 mm
10:50 AM 48.9°F9.4°C 41.3°F5.2°C 75% 9.2 mph SE14.8 kmh SE 15.0 mph24.1 kmh 29.98 in1015.2 mb - 0.00 in0.0 mm 0.14 in3.6 mm
11:00 AM 48.8°F9.3°C 41.2°F5.1°C 75% 8.1 mph ESE13.0 kmh ESE 10.4 mph16.7 kmh 29.98 in1015.2 mb - 0.00 in0.0 mm 0.14 in3.6 mm
11:10 AM 49.9°F9.9°C 40.9°F4.9°C 71% 8.1 mph ESE13.0 kmh ESE 15.0 mph24.1 kmh 29.98 in1015.2 mb - 0.00 in0.0 mm 0.14 in3.6 mm
11:20 AM 50.0°F10.0°C 40.6°F4.8°C 70% 6.9 mph ESE11.1 kmh ESE 9.2 mph14.8 kmh 29.97 in1014.9 mb - 0.00 in0.0 mm 0.14 in3.6 mm
11:30 AM 50.1°F10.1°C 40.7°F4.8°C 70% 9.2 mph ESE14.8 kmh ESE 11.5 mph18.5 kmh 29.97 in1014.9 mb - 0.00 in0.0 mm 0.14 in3.6 mm
11:40 AM 49.8°F9.9°C 40.8°F4.9°C 71% 8.1 mph ESE13.0 kmh ESE 11.5 mph18.5 kmh 29.97 in1014.9 mb - 0.00 in0.0 mm 0.14 in3.6 mm
11:50 AM 49.8°F9.9°C 41.1°F5.1°C 72% 9.2 mph ESE14.8 kmh ESE 13.8 mph22.2 kmh 29.97 in1014.9 mb - 0.00 in0.0 mm 0.14 in3.6 mm
12:00 PM 49.7°F9.8°C 41.1°F5.1°C 72% 8.1 mph ESE13.0 kmh ESE 11.5 mph18.5 kmh 29.96 in1014.6 mb - 0.00 in0.0 mm 0.14 in3.6 mm
12:10 PM 50.3°F10.2°C 40.5°F4.7°C 69% 9.2 mph SE14.8 kmh SE 11.5 mph18.5 kmh 29.96 in1014.6 mb - 0.00 in0.0 mm 0.14 in3.6 mm
12:20 PM 50.4°F10.2°C 40.6°F4.8°C 69% 6.9 mph E11.1 kmh E 12.7 mph20.4 kmh 29.96 in1014.6 mb - 0.00 in0.0 mm 0.14 in3.6 mm
12:30 PM 50.8°F10.4°C 40.3°F4.6°C 67% 6.9 mph SE11.1 kmh SE 6.9 mph11.1 kmh 29.96 in1014.6 mb - 0.00 in0.0 mm 0.14 in3.6 mm
12:40 PM 51.1°F10.6°C 40.1°F4.5°C 66% 2.3 mph ESE3.7 kmh ESE 5.8 mph9.3 kmh 29.96 in1014.6 mb - 0.00 in0.0 mm 0.14 in3.6 mm
12:50 PM 50.9°F10.5°C 40.3°F4.6°C 67% 11.5 mph E18.5 kmh E 12.7 mph20.4 kmh 29.95 in1014.2 mb - 0.00 in0.0 mm 0.14 in3.6 mm
01:00 PM 51.0°F10.6°C 40.0°F4.4°C 66% 5.8 mph ESE9.3 kmh ESE 10.4 mph16.7 kmh 29.95 in1014.2 mb - 0.00 in0.0 mm 0.14 in3.6 mm
01:10 PM 51.0°F10.6°C 40.0°F4.4°C 66% 4.6 mph ESE7.4 kmh ESE 8.1 mph13.0 kmh 29.94 in1013.9 mb - 0.00 in0.0 mm 0.14 in3.6 mm
01:20 PM 51.0°F10.6°C 40.0°F4.4°C 66% 3.5 mph ESE5.6 kmh ESE 10.4 mph16.7 kmh 29.94 in1013.9 mb - 0.00 in0.0 mm 0.14 in3.6 mm
01:30 PM 50.9°F10.5°C 39.9°F4.4°C 66% 8.1 mph SE13.0 kmh SE 13.8 mph22.2 kmh 29.93 in1013.5 mb - 0.00 in0.0 mm 0.14 in3.6 mm
01:40 PM 50.8°F10.4°C 39.8°F4.3°C 66% 5.8 mph ESE9.3 kmh ESE 13.8 mph22.2 kmh 29.93 in1013.5 mb - 0.00 in0.0 mm 0.14 in3.6 mm
01:50 PM 50.7°F10.4°C 39.7°F4.3°C 66% 9.2 mph ESE14.8 kmh ESE 13.8 mph22.2 kmh 29.93 in1013.5 mb - 0.00 in0.0 mm 0.14 in3.6 mm
02:00 PM 51.1°F10.6°C 39.3°F4.1°C 64% 8.1 mph ESE13.0 kmh ESE 16.1 mph25.9 kmh 29.93 in1013.5 mb - 0.00 in0.0 mm 0.14 in3.6 mm
02:10 PM 51.1°F10.6°C 39.3°F4.1°C 64% 10.4 mph SE16.7 kmh SE 17.3 mph27.8 kmh 29.93 in1013.5 mb - 0.00 in0.0 mm 0.14 in3.6 mm
02:20 PM 50.9°F10.5°C 39.5°F4.2°C 65% 5.8 mph ESE9.3 kmh ESE 6.9 mph11.1 kmh 29.92 in1013.2 mb - 0.00 in0.0 mm 0.14 in3.6 mm
02:30 PM 51.1°F10.6°C 39.7°F4.3°C 65% 8.1 mph ESE13.0 kmh ESE 15.0 mph24.1 kmh 29.92 in1013.2 mb - 0.00 in0.0 mm 0.14 in3.6 mm
02:40 PM 51.2°F10.7°C 39.4°F4.1°C 64% 3.5 mph ESE5.6 kmh ESE 6.9 mph11.1 kmh 29.92 in1013.2 mb - 0.00 in0.0 mm 0.14 in3.6 mm
02:50 PM 51.3°F10.7°C 39.5°F4.2°C 64% 6.9 mph ESE11.1 kmh ESE 9.2 mph14.8 kmh 29.91 in1012.9 mb - 0.00 in0.0 mm 0.14 in3.6 mm
03:00 PM 51.1°F10.6°C 39.3°F4.1°C 64% 9.2 mph SE14.8 kmh SE 19.6 mph31.5 kmh 29.91 in1012.9 mb - 0.00 in0.0 mm 0.14 in3.6 mm
03:10 PM 51.1°F10.6°C 39.3°F4.1°C 64% 5.8 mph ESE9.3 kmh ESE 6.9 mph11.1 kmh 29.92 in1013.2 mb - 0.00 in0.0 mm 0.14 in3.6 mm
03:20 PM 51.1°F10.6°C 39.3°F4.1°C 64% 5.8 mph E9.3 kmh E 6.9 mph11.1 kmh 29.92 in1013.2 mb - 0.00 in0.0 mm 0.14 in3.6 mm
03:30 PM 51.1°F10.6°C 39.3°F4.1°C 64% 6.9 mph SE11.1 kmh SE 11.5 mph18.5 kmh 29.92 in1013.2 mb - 0.00 in0.0 mm 0.14 in3.6 mm
03:40 PM 50.9°F10.5°C 39.1°F3.9°C 64% 4.6 mph ESE7.4 kmh ESE 3.5 mph5.6 kmh 29.92 in1013.2 mb - 0.00 in0.0 mm 0.14 in3.6 mm
03:50 PM 50.7°F10.4°C 39.4°F4.1°C 65% 6.9 mph ESE11.1 kmh ESE 9.2 mph14.8 kmh 29.92 in1013.2 mb - 0.00 in0.0 mm 0.14 in3.6 mm
04:00 PM 50.8°F10.4°C 39.1°F3.9°C 64% 5.8 mph ESE9.3 kmh ESE 10.4 mph16.7 kmh 29.91 in1012.9 mb - 0.00 in0.0 mm 0.14 in3.6 mm
04:10 PM 50.7°F10.4°C 39.0°F3.9°C 64% 6.9 mph SE11.1 kmh SE 11.5 mph18.5 kmh 29.91 in1012.9 mb - 0.00 in0.0 mm 0.14 in3.6 mm
04:20 PM 50.3°F10.2°C 39.4°F4.1°C 66% 9.2 mph SE14.8 kmh SE 15.0 mph24.1 kmh 29.90 in1012.5 mb - 0.00 in0.0 mm 0.14 in3.6 mm
04:30 PM 50.5°F10.3°C 39.2°F4.0°C 65% 9.2 mph ESE14.8 kmh ESE 12.7 mph20.4 kmh 29.89 in1012.2 mb - 0.00 in0.0 mm 0.14 in3.6 mm
04:40 PM 50.4°F10.2°C 39.1°F3.9°C 65% 8.1 mph ESE13.0 kmh ESE 13.8 mph22.2 kmh 29.89 in1012.2 mb - 0.00 in0.0 mm 0.14 in3.6 mm
04:50 PM 50.5°F10.3°C 39.1°F3.9°C 65% 5.8 mph ESE9.3 kmh ESE 12.7 mph20.4 kmh 29.89 in1012.2 mb - 0.00 in0.0 mm 0.14 in3.6 mm
05:00 PM 50.7°F10.4°C 39.0°F3.9°C 64% 4.6 mph E7.4 kmh E 11.5 mph18.5 kmh 29.88 in1011.9 mb - 0.00 in0.0 mm 0.14 in3.6 mm
05:10 PM 50.8°F10.4°C 38.7°F3.7°C 63% 5.8 mph SE9.3 kmh SE 5.8 mph9.3 kmh 29.88 in1011.9 mb - 0.00 in0.0 mm 0.14 in3.6 mm
05:20 PM 50.4°F10.2°C 38.7°F3.7°C 64% 4.6 mph ESE7.4 kmh ESE 5.8 mph9.3 kmh 29.87 in1011.5 mb - 0.00 in0.0 mm 0.14 in3.6 mm
05:30 PM 51.0°F10.6°C 38.4°F3.6°C 62% 8.1 mph SE13.0 kmh SE 15.0 mph24.1 kmh 29.86 in1011.2 mb - 0.00 in0.0 mm 0.14 in3.6 mm
05:40 PM 50.7°F10.4°C 38.6°F3.7°C 63% 9.2 mph SE14.8 kmh SE 11.5 mph18.5 kmh 29.86 in1011.2 mb - 0.00 in0.0 mm 0.14 in3.6 mm
05:50 PM 50.8°F10.4°C 38.2°F3.4°C 62% 10.4 mph SE16.7 kmh SE 18.4 mph29.6 kmh 29.85 in1010.8 mb - 0.00 in0.0 mm 0.14 in3.6 mm
06:00 PM 50.9°F10.5°C 37.9°F3.3°C 61% 9.2 mph SE14.8 kmh SE 15.0 mph24.1 kmh 29.85 in1010.8 mb - 0.00 in0.0 mm 0.14 in3.6 mm
06:10 PM 51.1°F10.6°C 37.7°F3.2°C 60% 5.8 mph SE9.3 kmh SE 9.2 mph14.8 kmh 29.86 in1011.2 mb - 0.00 in0.0 mm 0.14 in3.6 mm
06:20 PM 50.8°F10.4°C 37.8°F3.2°C 61% 4.6 mph SE7.4 kmh SE 8.1 mph13.0 kmh 29.86 in1011.2 mb - 0.00 in0.0 mm 0.14 in3.6 mm
06:30 PM 51.5°F10.8°C 37.2°F2.9°C 58% 9.2 mph SE14.8 kmh SE 12.7 mph20.4 kmh 29.84 in1010.5 mb - 0.00 in0.0 mm 0.14 in3.6 mm
06:40 PM 51.4°F10.8°C 37.1°F2.8°C 58% 6.9 mph ESE11.1 kmh ESE 11.5 mph18.5 kmh 29.84 in1010.5 mb - 0.00 in0.0 mm 0.14 in3.6 mm
06:50 PM 51.3°F10.7°C 37.0°F2.8°C 58% 9.2 mph ESE14.8 kmh ESE 15.0 mph24.1 kmh 29.83 in1010.2 mb - 0.00 in0.0 mm 0.14 in3.6 mm
07:00 PM 51.8°F11.0°C 36.6°F2.6°C 56% 3.5 mph ESE5.6 kmh ESE 5.8 mph9.3 kmh 29.82 in1009.8 mb - 0.00 in0.0 mm 0.14 in3.6 mm
07:10 PM 51.6°F10.9°C 36.4°F2.4°C 56% 6.9 mph E11.1 kmh E 12.7 mph20.4 kmh 29.82 in1009.8 mb - 0.00 in0.0 mm 0.14 in3.6 mm
07:20 PM 52.2°F11.2°C 36.0°F2.2°C 54% 10.4 mph ESE16.7 kmh ESE 23.0 mph37.0 kmh 29.81 in1009.5 mb - 0.00 in0.0 mm 0.14 in3.6 mm
07:30 PM 52.3°F11.3°C 35.7°F2.1°C 53% 9.2 mph SE14.8 kmh SE 17.3 mph27.8 kmh 29.81 in1009.5 mb - 0.00 in0.0 mm 0.14 in3.6 mm
07:40 PM 52.2°F11.2°C 36.0°F2.2°C 54% 6.9 mph E11.1 kmh E 11.5 mph18.5 kmh 29.81 in1009.5 mb - 0.00 in0.0 mm 0.14 in3.6 mm
07:50 PM 52.3°F11.3°C 36.1°F2.3°C 54% 8.1 mph ESE13.0 kmh ESE 18.4 mph29.6 kmh 29.81 in1009.5 mb - 0.00 in0.0 mm 0.14 in3.6 mm
08:00 PM 52.1°F11.2°C 36.0°F2.2°C 54% 8.1 mph E13.0 kmh E 11.5 mph18.5 kmh 29.81 in1009.5 mb - 0.00 in0.0 mm 0.14 in3.6 mm
08:10 PM 52.2°F11.2°C 36.0°F2.2°C 54% 5.8 mph ESE9.3 kmh ESE 11.5 mph18.5 kmh 29.80 in1009.1 mb - 0.00 in0.0 mm 0.14 in3.6 mm
08:20 PM 51.9°F11.1°C 35.7°F2.1°C 54% 8.1 mph ESE13.0 kmh ESE 18.4 mph29.6 kmh 29.80 in1009.1 mb - 0.00 in0.0 mm 0.14 in3.6 mm
08:30 PM 52.5°F11.4°C 35.8°F2.1°C 53% 8.1 mph SE13.0 kmh SE 10.4 mph16.7 kmh 29.79 in1008.8 mb - 0.00 in0.0 mm 0.14 in3.6 mm
08:40 PM 52.3°F11.3°C 35.7°F2.1°C 53% 9.2 mph E14.8 kmh E 18.4 mph29.6 kmh 29.79 in1008.8 mb - 0.00 in0.0 mm 0.14 in3.6 mm
08:50 PM 52.6°F11.4°C 35.9°F2.2°C 53% 5.8 mph E9.3 kmh E 10.4 mph16.7 kmh 29.79 in1008.8 mb - 0.00 in0.0 mm 0.14 in3.6 mm
09:00 PM 52.4°F11.3°C 35.8°F2.1°C 53% 5.8 mph E9.3 kmh E 15.0 mph24.1 kmh 29.79 in1008.8 mb - 0.00 in0.0 mm 0.14 in3.6 mm
09:10 PM 52.6°F11.4°C 35.5°F1.9°C 52% 8.1 mph E13.0 kmh E 15.0 mph24.1 kmh 29.78 in1008.5 mb - 0.00 in0.0 mm 0.14 in3.6 mm
09:20 PM 52.6°F11.4°C 35.5°F1.9°C 52% 3.5 mph SE5.6 kmh SE 6.9 mph11.1 kmh 29.78 in1008.5 mb - 0.00 in0.0 mm 0.14 in3.6 mm
09:30 PM 52.7°F11.5°C 35.5°F1.9°C 52% 8.1 mph E13.0 kmh E 17.3 mph27.8 kmh 29.78 in1008.5 mb - 0.00 in0.0 mm 0.14 in3.6 mm
09:40 PM 52.8°F11.6°C 35.6°F2.0°C 52% 4.6 mph E7.4 kmh E 11.5 mph18.5 kmh 29.77 in1008.1 mb - 0.00 in0.0 mm 0.14 in3.6 mm
09:50 PM 52.8°F11.6°C 35.7°F2.1°C 52% 6.9 mph ESE11.1 kmh ESE 17.3 mph27.8 kmh 29.77 in1008.1 mb - 0.00 in0.0 mm 0.14 in3.6 mm
10:00 PM 52.9°F11.6°C 35.7°F2.1°C 52% 6.9 mph ESE11.1 kmh ESE 13.8 mph22.2 kmh 29.77 in1008.1 mb - 0.00 in0.0 mm 0.14 in3.6 mm
10:10 PM 52.7°F11.5°C 36.1°F2.3°C 53% 4.6 mph E7.4 kmh E 3.5 mph5.6 kmh 29.77 in1008.1 mb - 0.00 in0.0 mm 0.14 in3.6 mm
10:20 PM 52.2°F11.2°C 36.5°F2.5°C 55% 4.6 mph ESE7.4 kmh ESE 6.9 mph11.1 kmh 29.77 in1008.1 mb - 0.00 in0.0 mm 0.14 in3.6 mm
10:30 PM 51.7°F10.9°C 36.9°F2.7°C 57% 6.9 mph ESE11.1 kmh ESE 17.3 mph27.8 kmh 29.76 in1007.8 mb - 0.00 in0.0 mm 0.14 in3.6 mm
10:40 PM 51.8°F11.0°C 37.0°F2.8°C 57% 6.9 mph ESE11.1 kmh ESE 17.3 mph27.8 kmh 29.76 in1007.8 mb - 0.00 in0.0 mm 0.14 in3.6 mm
10:50 PM 51.3°F10.7°C 37.5°F3.1°C 59% 6.9 mph ESE11.1 kmh ESE 16.1 mph25.9 kmh 29.76 in1007.8 mb - 0.00 in0.0 mm 0.14 in3.6 mm
11:00 PM 51.0°F10.6°C 37.6°F3.1°C 60% 4.6 mph E7.4 kmh E 6.9 mph11.1 kmh 29.75 in1007.5 mb - 0.00 in0.0 mm 0.14 in3.6 mm
11:10 PM 50.2°F10.1°C 38.1°F3.4°C 63% 5.8 mph ESE9.3 kmh ESE 6.9 mph11.1 kmh 29.75 in1007.5 mb - 0.00 in0.0 mm 0.14 in3.6 mm
11:20 PM 49.6°F9.8°C 38.7°F3.7°C 66% 6.9 mph ESE11.1 kmh ESE 9.2 mph14.8 kmh 29.74 in1007.1 mb - 0.00 in0.0 mm 0.14 in3.6 mm
11:30 PM 48.8°F9.3°C 39.4°F4.1°C 70% 9.2 mph SE14.8 kmh SE 11.5 mph18.5 kmh 29.73 in1006.8 mb - 0.00 in0.0 mm 0.14 in3.6 mm
11:40 PM 48.2°F9.0°C 39.9°F4.4°C 73% 5.8 mph SE9.3 kmh SE 13.8 mph22.2 kmh 29.73 in1006.8 mb - 0.00 in0.0 mm 0.14 in3.6 mm
11:50 PM 47.7°F8.7°C 39.8°F4.3°C 74% 5.8 mph ESE9.3 kmh ESE 9.2 mph14.8 kmh 29.73 in1006.8 mb - 0.00 in0.0 mm 0.14 in3.6 mm